sensor_id;sensor_type;location;lat;lon;timestamp;temperature;humidity
35668;DHT22;22158;59.280;17.806;2022-12-07T05:01:51;-5.00;99.90
35668;DHT22;22158;59.280;17.806;2022-12-07T05:04:17;-5.00;99.90
35668;DHT22;22158;59.280;17.806;2022-12-07T05:06:43;-5.00;99.90
35668;DHT22;22158;59.280;17.806;2022-12-07T05:09:09;-4.90;99.90
35668;DHT22;22158;59.280;17.806;2022-12-07T05:11:35;-4.90;99.90
35668;DHT22;22158;59.280;17.806;2022-12-07T05:14:15;-4.80;99.90
35668;DHT22;22158;59.280;17.806;2022-12-07T05:16:42;-4.70;99.90
35668;DHT22;22158;59.280;17.806;2022-12-07T05:19:08;-4.70;99.90
35668;DHT22;22158;59.280;17.806;2022-12-07T05:21:35;-4.70;99.90
35668;DHT22;22158;59.280;17.806;2022-12-07T05:24:01;-4.70;99.90
35668;DHT22;22158;59.280;17.806;2022-12-07T05:26:27;-4.60;99.90
35668;DHT22;22158;59.280;17.806;2022-12-07T05:28:54;-4.60;99.90
35668;DHT22;22158;59.280;17.806;2022-12-07T05:31:20;-4.70;99.90
35668;DHT22;22158;59.280;17.806;2022-12-07T05:33:46;-4.70;99.90
35668;DHT22;22158;59.280;17.806;2022-12-07T05:36:12;-4.70;99.90
35668;DHT22;22158;59.280;17.806;2022-12-07T05:38:37;-4.80;99.90
35668;DHT22;22158;59.280;17.806;2022-12-07T05:41:05;-4.80;99.90
35668;DHT22;22158;59.280;17.806;2022-12-07T05:43:32;-4.70;99.90
35668;DHT22;22158;59.280;17.806;2022-12-07T05:45:58;-4.60;99.90
35668;DHT22;22158;59.280;17.806;2022-12-07T05:48:24;-4.60;99.90
35668;DHT22;22158;59.280;17.806;2022-12-07T05:50:50;-4.60;99.90
35668;DHT22;22158;59.280;17.806;2022-12-07T05:53:16;-4.60;99.90
35668;DHT22;22158;59.280;17.806;2022-12-07T05:55:43;-4.60;99.90
35668;DHT22;22158;59.280;17.806;2022-12-07T05:58:09;-4.50;99.90
35668;DHT22;22158;59.280;17.806;2022-12-07T06:00:57;-4.40;99.90
35668;DHT22;22158;59.280;17.806;2022-12-07T06:03:22;-4.40;99.90
35668;DHT22;22158;59.280;17.806;2022-12-07T06:05:49;-4.40;99.90
35668;DHT22;22158;59.280;17.806;2022-12-07T06:08:14;-4.40;99.90
35668;DHT22;22158;59.280;17.806;2022-12-07T06:10:41;-4.50;99.90
35668;DHT22;22158;59.280;17.806;2022-12-07T06:13:08;-4.40;99.90
35668;DHT22;22158;59.280;17.806;2022-12-07T06:15:36;-4.50;99.90
35668;DHT22;22158;59.280;17.806;2022-12-07T06:18:01;-4.50;99.90
35668;DHT22;22158;59.280;17.806;2022-12-07T06:20:27;-4.50;99.90
35668;DHT22;22158;59.280;17.806;2022-12-07T06:22:53;-4.50;99.90
35668;DHT22;22158;59.280;17.806;2022-12-07T06:25:18;-4.50;99.90
35668;DHT22;22158;59.280;17.806;2022-12-07T06:27:44;-4.50;99.90
35668;DHT22;22158;59.280;17.806;2022-12-07T06:30:10;-4.50;99.90
35668;DHT22;22158;59.280;17.806;2022-12-07T06:32:37;-4.50;99.90
35668;DHT22;22158;59.280;17.806;2022-12-07T06:35:03;-4.50;99.90
35668;DHT22;22158;59.280;17.806;2022-12-07T06:37:29;-4.50;99.90
35668;DHT22;22158;59.280;17.806;2022-12-07T06:39:55;-4.60;99.90
35668;DHT22;22158;59.280;17.806;2022-12-07T06:42:20;-4.60;99.90
35668;DHT22;22158;59.280;17.806;2022-12-07T06:44:46;-4.50;99.90
35668;DHT22;22158;59.280;17.806;2022-12-07T06:47:12;-4.50;99.90
35668;DHT22;22158;59.280;17.806;2022-12-07T06:49:37;-4.40;99.90
35668;DHT22;22158;59.280;17.806;2022-12-07T06:52:04;-4.50;99.90
35668;DHT22;22158;59.280;17.806;2022-12-07T06:54:31;-4.50;99.90
35668;DHT22;22158;59.280;17.806;2022-12-07T06:56:56;-4.50;99.90
35668;DHT22;22158;59.280;17.806;2022-12-07T06:59:22;-4.50;99.90
35668;DHT22;22158;59.280;17.806;2022-12-07T07:01:48;-4.50;99.90
35668;DHT22;22158;59.280;17.806;2022-12-07T07:04:13;-4.50;99.90
35668;DHT22;22158;59.280;17.806;2022-12-07T07:06:39;-4.50;99.90
35668;DHT22;22158;59.280;17.806;2022-12-07T07:09:05;-4.50;99.90
35668;DHT22;22158;59.280;17.806;2022-12-07T07:11:30;-4.50;99.90
35668;DHT22;22158;59.280;17.806;2022-12-07T07:13:56;-4.50;99.90
35668;DHT22;22158;59.280;17.806;2022-12-07T07:16:24;-4.50;99.90
35668;DHT22;22158;59.280;17.806;2022-12-07T07:18:50;-4.60;99.90
35668;DHT22;22158;59.280;17.806;2022-12-07T07:21:15;-4.60;99.90
35668;DHT22;22158;59.280;17.806;2022-12-07T07:23:41;-4.60;99.90
35668;DHT22;22158;59.280;17.806;2022-12-07T07:26:07;-4.70;99.90
35668;DHT22;22158;59.280;17.806;2022-12-07T07:28:32;-4.70;99.90
35668;DHT22;22158;59.280;17.806;2022-12-07T07:30:58;-4.70;99.90
35668;DHT22;22158;59.280;17.806;2022-12-07T07:33:24;-4.70;99.90
35668;DHT22;22158;59.280;17.806;2022-12-07T07:35:49;-4.80;99.90
35668;DHT22;22158;59.280;17.806;2022-12-07T07:38:15;-4.80;99.90
35668;DHT22;22158;59.280;17.806;2022-12-07T07:40:40;-4.80;99.90
35668;DHT22;22158;59.280;17.806;2022-12-07T07:43:06;-4.80;99.90
35668;DHT22;22158;59.280;17.806;2022-12-07T07:45:32;-4.80;99.90
35668;DHT22;22158;59.280;17.806;2022-12-07T07:47:57;-4.80;99.90
35668;DHT22;22158;59.280;17.806;2022-12-07T07:50:23;-4.80;99.90
35668;DHT22;22158;59.280;17.806;2022-12-07T07:52:49;-4.80;99.90
35668;DHT22;22158;59.280;17.806;2022-12-07T07:55:15;-4.80;99.90
35668;DHT22;22158;59.280;17.806;2022-12-07T07:57:41;-4.80;99.90
35668;DHT22;22158;59.280;17.806;2022-12-07T08:00:11;-4.80;99.90
35668;DHT22;22158;59.280;17.806;2022-12-07T08:02:37;-4.80;99.90
35668;DHT22;22158;59.280;17.806;2022-12-07T08:05:03;-4.80;99.90
35668;DHT22;22158;59.280;17.806;2022-12-07T08:07:28;-4.90;99.90
35668;DHT22;22158;59.280;17.806;2022-12-07T08:09:54;-4.80;99.90
35668;DHT22;22158;59.280;17.806;2022-12-07T08:12:20;-4.80;99.90
35668;DHT22;22158;59.280;17.806;2022-12-07T08:14:45;-4.80;99.90
35668;DHT22;22158;59.280;17.806;2022-12-07T08:17:11;-4.80;99.90
35668;DHT22;22158;59.280;17.806;2022-12-07T08:19:37;-4.80;99.90
35668;DHT22;22158;59.280;17.806;2022-12-07T08:22:03;-4.80;99.90
35668;DHT22;22158;59.280;17.806;2022-12-07T08:24:29;-4.80;99.90
35668;DHT22;22158;59.280;17.806;2022-12-07T08:26:55;-4.80;99.90
35668;DHT22;22158;59.280;17.806;2022-12-07T08:29:21;-4.80;99.90
35668;DHT22;22158;59.280;17.806;2022-12-07T08:31:47;-4.90;99.90
35668;DHT22;22158;59.280;17.806;2022-12-07T08:34:13;-4.80;99.90
35668;DHT22;22158;59.280;17.806;2022-12-07T08:36:39;-4.80;99.90
35668;DHT22;22158;59.280;17.806;2022-12-07T08:39:05;-4.80;99.90
35668;DHT22;22158;59.280;17.806;2022-12-07T08:41:31;-4.80;99.90
35668;DHT22;22158;59.280;17.806;2022-12-07T08:43:57;-4.80;99.90
35668;DHT22;22158;59.280;17.806;2022-12-07T08:46:51;-4.80;99.90
35668;DHT22;22158;59.280;17.806;2022-12-07T08:49:27;-4.80;99.90
35668;DHT22;22158;59.280;17.806;2022-12-07T08:51:53;-4.80;99.90
35668;DHT22;22158;59.280;17.806;2022-12-07T08:54:20;-4.80;99.90
35668;DHT22;22158;59.280;17.806;2022-12-07T08:56:47;-4.80;99.90
35668;DHT22;22158;59.280;17.806;2022-12-07T08:59:15;-4.70;99.90
35668;DHT22;22158;59.280;17.806;2022-12-07T09:01:42;-4.70;99.90
35668;DHT22;22158;59.280;17.806;2022-12-07T09:04:08;-4.70;99.90
35668;DHT22;22158;59.280;17.806;2022-12-07T09:06:34;-4.60;99.90
35668;DHT22;22158;59.280;17.806;2022-12-07T09:09:01;-4.60;99.90
35668;DHT22;22158;59.280;17.806;2022-12-07T09:11:27;-4.60;99.90
35668;DHT22;22158;59.280;17.806;2022-12-07T09:13:53;-4.60;99.90
35668;DHT22;22158;59.280;17.806;2022-12-07T09:16:18;-4.60;99.90
35668;DHT22;22158;59.280;17.806;2022-12-07T09:18:44;-4.60;99.90
35668;DHT22;22158;59.280;17.806;2022-12-07T09:21:10;-4.60;99.90
35668;DHT22;22158;59.280;17.806;2022-12-07T09:23:35;-4.60;99.90
35668;DHT22;22158;59.280;17.806;2022-12-07T09:26:03;-4.60;99.90
35668;DHT22;22158;59.280;17.806;2022-12-07T09:28:31;-4.50;99.90
35668;DHT22;22158;59.280;17.806;2022-12-07T09:30:56;-4.40;99.90
35668;DHT22;22158;59.280;17.806;2022-12-07T09:33:22;-4.40;99.90
35668;DHT22;22158;59.280;17.806;2022-12-07T09:35:50;-4.30;99.90
35668;DHT22;22158;59.280;17.806;2022-12-07T09:38:16;-4.20;99.90
35668;DHT22;22158;59.280;17.806;2022-12-07T09:40:42;-4.10;99.90
35668;DHT22;22158;59.280;17.806;2022-12-07T09:43:20;-4.10;99.90
35668;DHT22;22158;59.280;17.806;2022-12-07T09:45:48;-4.10;99.90
35668;DHT22;22158;59.280;17.806;2022-12-07T09:48:19;-4.10;99.90
35668;DHT22;22158;59.280;17.806;2022-12-07T09:50:47;-4.10;99.90
35668;DHT22;22158;59.280;17.806;2022-12-07T09:53:35;-4.20;99.90
35668;DHT22;22158;59.280;17.806;2022-12-07T09:56:02;-4.20;99.90
35668;DHT22;22158;59.280;17.806;2022-12-07T09:58:30;-4.20;99.90
35668;DHT22;22158;59.280;17.806;2022-12-07T10:01:09;-4.10;99.90
35668;DHT22;22158;59.280;17.806;2022-12-07T10:03:38;-4.10;99.90
35668;DHT22;22158;59.280;17.806;2022-12-07T10:06:05;-4.10;99.90
35668;DHT22;22158;59.280;17.806;2022-12-07T10:08:31;-4.10;99.90
35668;DHT22;22158;59.280;17.806;2022-12-07T10:10:57;-4.10;99.90
35668;DHT22;22158;59.280;17.806;2022-12-07T10:13:43;-4.10;99.90
35668;DHT22;22158;59.280;17.806;2022-12-07T10:16:32;-4.00;99.90
35668;DHT22;22158;59.280;17.806;2022-12-07T10:19:19;-4.00;99.90
35668;DHT22;22158;59.280;17.806;2022-12-07T10:22:11;-4.00;99.90
35668;DHT22;22158;59.280;17.806;2022-12-07T10:24:39;-3.90;99.90
35668;DHT22;22158;59.280;17.806;2022-12-07T10:27:21;-3.90;99.90
35668;DHT22;22158;59.280;17.806;2022-12-07T10:29:50;-3.90;99.90
35668;DHT22;22158;59.280;17.806;2022-12-07T10:34:42;-3.90;99.90
35668;DHT22;22158;59.280;17.806;2022-12-07T10:39:57;-3.80;99.90
35668;DHT22;22158;59.280;17.806;2022-12-07T10:42:28;-3.80;99.90
35668;DHT22;22158;59.280;17.806;2022-12-07T10:45:16;-3.80;99.90
35668;DHT22;22158;59.280;17.806;2022-12-07T10:53:17;-3.80;99.90
35668;DHT22;22158;59.280;17.806;2022-12-07T11:01:33;-3.80;99.90
35668;DHT22;22158;59.280;17.806;2022-12-07T11:09:34;-3.80;99.90
35668;DHT22;22158;59.280;17.806;2022-12-07T11:18:13;-3.70;99.90
35668;DHT22;22158;59.280;17.806;2022-12-07T11:27:16;-3.70;99.90
35668;DHT22;22158;59.280;17.806;2022-12-07T11:29:55;-3.70;99.90
35668;DHT22;22158;59.280;17.806;2022-12-07T11:35:23;-3.70;99.90
35668;DHT22;22158;59.280;17.806;2022-12-07T11:37:55;-3.70;99.90
35668;DHT22;22158;59.280;17.806;2022-12-07T11:40:27;-3.60;99.90
35668;DHT22;22158;59.280;17.806;2022-12-07T11:43:15;-3.70;99.90
35668;DHT22;22158;59.280;17.806;2022-12-07T11:45:46;-3.60;99.90
35668;DHT22;22158;59.280;17.806;2022-12-07T11:48:17;-3.60;99.90
35668;DHT22;22158;59.280;17.806;2022-12-07T11:50:59;-3.60;99.90
35668;DHT22;22158;59.280;17.806;2022-12-07T11:53:27;-3.60;99.90
35668;DHT22;22158;59.280;17.806;2022-12-07T11:56:02;-3.60;99.90
35668;DHT22;22158;59.280;17.806;2022-12-07T12:06:35;-3.50;99.90
35668;DHT22;22158;59.280;17.806;2022-12-07T12:09:26;-3.50;99.90
35668;DHT22;22158;59.280;17.806;2022-12-07T12:20:31;-3.20;99.90
35668;DHT22;22158;59.280;17.806;2022-12-07T12:23:20;-3.20;99.90
35668;DHT22;22158;59.280;17.806;2022-12-07T12:25:51;-3.20;99.90
35668;DHT22;22158;59.280;17.806;2022-12-07T12:28:25;-3.20;99.90
35668;DHT22;22158;59.280;17.806;2022-12-07T12:33:57;-3.10;99.90
35668;DHT22;22158;59.280;17.806;2022-12-07T12:36:28;-3.10;99.90
35668;DHT22;22158;59.280;17.806;2022-12-07T12:46:53;-3.20;99.90
35668;DHT22;22158;59.280;17.806;2022-12-07T12:51:53;-3.20;99.90
35668;DHT22;22158;59.280;17.806;2022-12-07T12:59:36;-3.20;99.90
35668;DHT22;22158;59.280;17.806;2022-12-07T13:02:39;-3.20;99.90
35668;DHT22;22158;59.280;17.806;2022-12-07T13:18:24;-3.30;99.90
35668;DHT22;22158;59.280;17.806;2022-12-07T13:28:38;-3.20;99.90
35668;DHT22;22158;59.280;17.806;2022-12-07T13:33:52;-3.20;99.90
35668;DHT22;22158;59.280;17.806;2022-12-07T13:36:26;-3.20;99.90
35668;DHT22;22158;59.280;17.806;2022-12-07T13:39:00;-3.20;99.90
35668;DHT22;22158;59.280;17.806;2022-12-07T13:41:35;-3.20;99.90
35668;DHT22;22158;59.280;17.806;2022-12-07T13:44:14;-3.30;99.90
35668;DHT22;22158;59.280;17.806;2022-12-07T13:49:22;-3.30;99.90
35668;DHT22;22158;59.280;17.806;2022-12-07T13:51:48;-3.30;99.90
35668;DHT22;22158;59.280;17.806;2022-12-07T13:54:14;-3.40;99.90
35668;DHT22;22158;59.280;17.806;2022-12-07T13:56:41;-3.40;99.90
35668;DHT22;22158;59.280;17.806;2022-12-07T13:59:22;-3.40;99.90
35668;DHT22;22158;59.280;17.806;2022-12-07T14:01:48;-3.40;99.90
35668;DHT22;22158;59.280;17.806;2022-12-07T14:04:34;-3.40;99.90
35668;DHT22;22158;59.280;17.806;2022-12-07T14:07:00;-3.50;99.90
35668;DHT22;22158;59.280;17.806;2022-12-07T14:09:28;-3.50;99.90
35668;DHT22;22158;59.280;17.806;2022-12-07T14:11:56;-3.50;99.90
35668;DHT22;22158;59.280;17.806;2022-12-07T14:14:30;-3.50;99.90
35668;DHT22;22158;59.280;17.806;2022-12-07T14:17:02;-3.50;99.90
35668;DHT22;22158;59.280;17.806;2022-12-07T14:19:44;-3.50;99.90
35668;DHT22;22158;59.280;17.806;2022-12-07T14:22:26;-3.50;99.90
35668;DHT22;22158;59.280;17.806;2022-12-07T14:28:01;-3.50;99.90
35668;DHT22;22158;59.280;17.806;2022-12-07T14:30:31;-3.50;99.90
35668;DHT22;22158;59.280;17.806;2022-12-07T14:33:05;-3.60;99.90
35668;DHT22;22158;59.280;17.806;2022-12-07T14:35:31;-3.60;99.90
35668;DHT22;22158;59.280;17.806;2022-12-07T14:37:57;-3.60;99.90
35668;DHT22;22158;59.280;17.806;2022-12-07T14:40:25;-3.60;99.90
35668;DHT22;22158;59.280;17.806;2022-12-07T14:43:05;-3.50;99.90
35668;DHT22;22158;59.280;17.806;2022-12-07T14:45:31;-3.50;99.90
35668;DHT22;22158;59.280;17.806;2022-12-07T14:47:57;-3.50;99.90
35668;DHT22;22158;59.280;17.806;2022-12-07T14:50:22;-3.50;99.90
35668;DHT22;22158;59.280;17.806;2022-12-07T14:52:52;-3.50;99.90
35668;DHT22;22158;59.280;17.806;2022-12-07T14:55:27;-3.60;99.90
35668;DHT22;22158;59.280;17.806;2022-12-07T14:57:53;-3.60;99.90
35668;DHT22;22158;59.280;17.806;2022-12-07T15:00:21;-3.60;99.90
35668;DHT22;22158;59.280;17.806;2022-12-07T15:02:47;-3.60;99.90
35668;DHT22;22158;59.280;17.806;2022-12-07T15:05:13;-3.60;99.90
35668;DHT22;22158;59.280;17.806;2022-12-07T15:07:40;-3.60;99.90
35668;DHT22;22158;59.280;17.806;2022-12-07T15:10:13;-3.60;99.90
35668;DHT22;22158;59.280;17.806;2022-12-07T15:12:39;-3.60;99.90
35668;DHT22;22158;59.280;17.806;2022-12-07T15:15:07;-3.60;99.90
35668;DHT22;22158;59.280;17.806;2022-12-07T15:17:32;-3.60;99.90
35668;DHT22;22158;59.280;17.806;2022-12-07T15:19:58;-3.60;99.90
35668;DHT22;22158;59.280;17.806;2022-12-07T15:22:24;-3.60;99.90
35668;DHT22;22158;59.280;17.806;2022-12-07T15:24:49;-3.60;99.90
35668;DHT22;22158;59.280;17.806;2022-12-07T15:27:15;-3.50;99.90
35668;DHT22;22158;59.280;17.806;2022-12-07T15:29:40;-3.50;99.90
35668;DHT22;22158;59.280;17.806;2022-12-07T15:32:06;-3.50;99.90
35668;DHT22;22158;59.280;17.806;2022-12-07T15:34:32;-3.50;99.90
35668;DHT22;22158;59.280;17.806;2022-12-07T15:36:57;-3.50;99.90
35668;DHT22;22158;59.280;17.806;2022-12-07T15:39:23;-3.50;99.90
35668;DHT22;22158;59.280;17.806;2022-12-07T15:41:49;-3.50;99.90
35668;DHT22;22158;59.280;17.806;2022-12-07T15:44:15;-3.50;99.90
35668;DHT22;22158;59.280;17.806;2022-12-07T15:47:00;-3.60;99.90
35668;DHT22;22158;59.280;17.806;2022-12-07T15:49:26;-3.50;99.90
35668;DHT22;22158;59.280;17.806;2022-12-07T15:51:53;-3.50;99.90
35668;DHT22;22158;59.280;17.806;2022-12-07T15:54:21;-3.50;99.90
35668;DHT22;22158;59.280;17.806;2022-12-07T15:56:48;-3.60;99.90
35668;DHT22;22158;59.280;17.806;2022-12-07T15:59:14;-3.60;99.90
35668;DHT22;22158;59.280;17.806;2022-12-07T16:01:40;-3.60;99.90
35668;DHT22;22158;59.280;17.806;2022-12-07T16:04:05;-3.60;99.90
35668;DHT22;22158;59.280;17.806;2022-12-07T16:06:31;-3.60;99.90
35668;DHT22;22158;59.280;17.806;2022-12-07T16:08:57;-3.60;99.90
35668;DHT22;22158;59.280;17.806;2022-12-07T16:11:23;-3.60;99.90
35668;DHT22;22158;59.280;17.806;2022-12-07T16:13:49;-3.70;99.90
35668;DHT22;22158;59.280;17.806;2022-12-07T16:16:16;-3.70;99.90
35668;DHT22;22158;59.280;17.806;2022-12-07T16:18:43;-3.80;99.90
35668;DHT22;22158;59.280;17.806;2022-12-07T16:21:09;-3.90;99.90
35668;DHT22;22158;59.280;17.806;2022-12-07T16:23:35;-3.90;99.90
35668;DHT22;22158;59.280;17.806;2022-12-07T16:26:10;-4.00;99.90
35668;DHT22;22158;59.280;17.806;2022-12-07T16:28:36;-4.00;99.90
35668;DHT22;22158;59.280;17.806;2022-12-07T16:31:07;-4.00;99.90
35668;DHT22;22158;59.280;17.806;2022-12-07T16:33:37;-4.00;99.90
35668;DHT22;22158;59.280;17.806;2022-12-07T16:36:05;-4.10;99.90
35668;DHT22;22158;59.280;17.806;2022-12-07T16:38:31;-4.10;99.90
35668;DHT22;22158;59.280;17.806;2022-12-07T16:40:57;-4.20;99.90
35668;DHT22;22158;59.280;17.806;2022-12-07T16:43:23;-4.20;99.90
35668;DHT22;22158;59.280;17.806;2022-12-07T16:45:49;-4.30;99.90
35668;DHT22;22158;59.280;17.806;2022-12-07T16:48:15;-4.20;99.90
35668;DHT22;22158;59.280;17.806;2022-12-07T16:50:42;-4.30;99.90
35668;DHT22;22158;59.280;17.806;2022-12-07T16:53:09;-4.20;99.90
35668;DHT22;22158;59.280;17.806;2022-12-07T16:55:37;-4.20;99.90
35668;DHT22;22158;59.280;17.806;2022-12-07T16:58:02;-4.30;99.90
35668;DHT22;22158;59.280;17.806;2022-12-07T17:00:28;-4.30;99.90
35668;DHT22;22158;59.280;17.806;2022-12-07T17:02:54;-4.30;99.90
35668;DHT22;22158;59.280;17.806;2022-12-07T17:05:20;-4.30;99.90
35668;DHT22;22158;59.280;17.806;2022-12-07T17:07:46;-4.30;99.90
35668;DHT22;22158;59.280;17.806;2022-12-07T17:10:12;-4.40;99.90
35668;DHT22;22158;59.280;17.806;2022-12-07T17:12:37;-4.40;99.90
35668;DHT22;22158;59.280;17.806;2022-12-07T17:15:03;-4.40;99.90
35668;DHT22;22158;59.280;17.806;2022-12-07T17:17:58;-4.40;99.90
35668;DHT22;22158;59.280;17.806;2022-12-07T17:20:26;-4.40;99.90
35668;DHT22;22158;59.280;17.806;2022-12-07T17:22:52;-4.50;99.90
35668;DHT22;22158;59.280;17.806;2022-12-07T17:25:18;-4.50;99.90
35668;DHT22;22158;59.280;17.806;2022-12-07T17:27:45;-4.50;99.90
35668;DHT22;22158;59.280;17.806;2022-12-07T17:30:12;-4.50;99.90
35668;DHT22;22158;59.280;17.806;2022-12-07T17:32:38;-4.50;99.90
35668;DHT22;22158;59.280;17.806;2022-12-07T17:35:04;-4.50;99.90
35668;DHT22;22158;59.280;17.806;2022-12-07T17:37:31;-4.50;99.90
35668;DHT22;22158;59.280;17.806;2022-12-07T17:39:57;-4.40;99.90
35668;DHT22;22158;59.280;17.806;2022-12-07T17:42:26;-4.50;99.90
35668;DHT22;22158;59.280;17.806;2022-12-07T17:45:03;-4.40;99.90
35668;DHT22;22158;59.280;17.806;2022-12-07T17:47:28;-4.40;99.90
35668;DHT22;22158;59.280;17.806;2022-12-07T17:49:54;-4.50;99.90
35668;DHT22;22158;59.280;17.806;2022-12-07T17:52:20;-4.40;99.90
35668;DHT22;22158;59.280;17.806;2022-12-07T17:55:05;-4.50;99.90
35668;DHT22;22158;59.280;17.806;2022-12-07T17:57:30;-4.50;99.90
35668;DHT22;22158;59.280;17.806;2022-12-07T17:59:56;-4.50;99.90
35668;DHT22;22158;59.280;17.806;2022-12-07T18:02:22;-4.60;99.90
35668;DHT22;22158;59.280;17.806;2022-12-07T18:04:48;-4.50;99.90
35668;DHT22;22158;59.280;17.806;2022-12-07T18:07:13;-4.60;99.90
35668;DHT22;22158;59.280;17.806;2022-12-07T18:09:39;-4.60;99.90
35668;DHT22;22158;59.280;17.806;2022-12-07T18:12:06;-4.70;99.90
35668;DHT22;22158;59.280;17.806;2022-12-07T18:14:32;-4.70;99.90
35668;DHT22;22158;59.280;17.806;2022-12-07T18:16:58;-4.70;99.90
35668;DHT22;22158;59.280;17.806;2022-12-07T18:19:24;-4.70;99.90
35668;DHT22;22158;59.280;17.806;2022-12-07T18:21:49;-4.70;99.90
35668;DHT22;22158;59.280;17.806;2022-12-07T18:24:16;-4.70;99.90
35668;DHT22;22158;59.280;17.806;2022-12-07T18:26:43;-4.70;99.90
35668;DHT22;22158;59.280;17.806;2022-12-07T18:29:18;-4.80;99.90
35668;DHT22;22158;59.280;17.806;2022-12-07T18:31:45;-4.80;99.90
35668;DHT22;22158;59.280;17.806;2022-12-07T18:34:14;-4.80;99.90
35668;DHT22;22158;59.280;17.806;2022-12-07T18:36:42;-4.80;99.90
35668;DHT22;22158;59.280;17.806;2022-12-07T18:39:08;-4.80;99.90
35668;DHT22;22158;59.280;17.806;2022-12-07T18:41:34;-4.90;99.90
35668;DHT22;22158;59.280;17.806;2022-12-07T18:44:02;-4.80;99.90
35668;DHT22;22158;59.280;17.806;2022-12-07T18:46:28;-4.80;99.90
35668;DHT22;22158;59.280;17.806;2022-12-07T18:48:54;-4.80;99.90
35668;DHT22;22158;59.280;17.806;2022-12-07T18:51:21;-4.80;99.90
35668;DHT22;22158;59.280;17.806;2022-12-07T18:53:48;-4.80;99.90
35668;DHT22;22158;59.280;17.806;2022-12-07T18:56:14;-4.80;99.90
35668;DHT22;22158;59.280;17.806;2022-12-07T18:58:41;-4.90;99.90
35668;DHT22;22158;59.280;17.806;2022-12-07T19:01:27;-4.90;99.90
35668;DHT22;22158;59.280;17.806;2022-12-07T19:03:55;-4.90;99.90
35668;DHT22;22158;59.280;17.806;2022-12-07T19:06:21;-4.90;99.90
35668;DHT22;22158;59.280;17.806;2022-12-07T19:08:46;-4.90;99.90
35668;DHT22;22158;59.280;17.806;2022-12-07T19:11:20;-4.90;99.90
35668;DHT22;22158;59.280;17.806;2022-12-07T19:14:05;-4.90;99.90
35668;DHT22;22158;59.280;17.806;2022-12-07T19:16:31;-4.90;99.90
35668;DHT22;22158;59.280;17.806;2022-12-07T19:18:56;-4.90;99.90
35668;DHT22;22158;59.280;17.806;2022-12-07T19:21:22;-4.90;99.90
35668;DHT22;22158;59.280;17.806;2022-12-07T19:23:48;-4.90;99.90
35668;DHT22;22158;59.280;17.806;2022-12-07T19:26:13;-5.00;99.90
35668;DHT22;22158;59.280;17.806;2022-12-07T19:28:39;-5.00;99.90
35668;DHT22;22158;59.280;17.806;2022-12-07T19:31:09;-5.00;99.90
35668;DHT22;22158;59.280;17.806;2022-12-07T19:33:37;-5.00;99.90
35668;DHT22;22158;59.280;17.806;2022-12-07T19:36:03;-5.10;99.90
35668;DHT22;22158;59.280;17.806;2022-12-07T19:38:30;-5.00;99.90
35668;DHT22;22158;59.280;17.806;2022-12-07T19:41:16;-5.00;99.90
35668;DHT22;22158;59.280;17.806;2022-12-07T19:44:07;-5.00;99.90
35668;DHT22;22158;59.280;17.806;2022-12-07T19:46:33;-5.10;99.90
35668;DHT22;22158;59.280;17.806;2022-12-07T19:49:00;-5.10;99.90
35668;DHT22;22158;59.280;17.806;2022-12-07T19:51:27;-5.10;99.90
35668;DHT22;22158;59.280;17.806;2022-12-07T19:53:57;-5.10;99.90
35668;DHT22;22158;59.280;17.806;2022-12-07T19:56:23;-5.10;99.90
35668;DHT22;22158;59.280;17.806;2022-12-07T19:58:49;-5.20;99.90
35668;DHT22;22158;59.280;17.806;2022-12-07T20:01:15;-5.20;99.90
35668;DHT22;22158;59.280;17.806;2022-12-07T20:03:41;-5.20;99.90
35668;DHT22;22158;59.280;17.806;2022-12-07T20:06:15;-5.20;99.90
35668;DHT22;22158;59.280;17.806;2022-12-07T20:08:42;-5.30;99.90
35668;DHT22;22158;59.280;17.806;2022-12-07T20:11:09;-5.30;99.90
35668;DHT22;22158;59.280;17.806;2022-12-07T20:13:53;-5.30;99.90
35668;DHT22;22158;59.280;17.806;2022-12-07T20:16:19;-5.30;99.90
35668;DHT22;22158;59.280;17.806;2022-12-07T20:18:45;-5.30;99.90
35668;DHT22;22158;59.280;17.806;2022-12-07T20:21:12;-5.30;99.90
35668;DHT22;22158;59.280;17.806;2022-12-07T20:23:38;-5.30;99.90
35668;DHT22;22158;59.280;17.806;2022-12-07T20:26:05;-5.30;99.90
35668;DHT22;22158;59.280;17.806;2022-12-07T20:28:32;-5.30;99.90
35668;DHT22;22158;59.280;17.806;2022-12-07T20:30:58;-5.30;99.90
35668;DHT22;22158;59.280;17.806;2022-12-07T20:33:23;-5.30;99.90
35668;DHT22;22158;59.280;17.806;2022-12-07T20:35:49;-5.30;99.90
35668;DHT22;22158;59.280;17.806;2022-12-07T20:38:15;-5.30;99.90
35668;DHT22;22158;59.280;17.806;2022-12-07T20:40:48;-5.40;99.90
35668;DHT22;22158;59.280;17.806;2022-12-07T20:43:13;-5.40;99.90
35668;DHT22;22158;59.280;17.806;2022-12-07T20:45:46;-5.40;99.90
35668;DHT22;22158;59.280;17.806;2022-12-07T20:48:12;-5.40;99.90
35668;DHT22;22158;59.280;17.806;2022-12-07T20:50:38;-5.40;99.90
35668;DHT22;22158;59.280;17.806;2022-12-07T20:53:04;-5.40;99.90
35668;DHT22;22158;59.280;17.806;2022-12-07T20:55:30;-5.40;99.90
35668;DHT22;22158;59.280;17.806;2022-12-07T20:57:55;-5.40;99.90
35668;DHT22;22158;59.280;17.806;2022-12-07T21:00:21;-5.40;99.90
35668;DHT22;22158;59.280;17.806;2022-12-07T21:02:47;-5.40;99.90
35668;DHT22;22158;59.280;17.806;2022-12-07T21:05:13;-5.40;99.90
35668;DHT22;22158;59.280;17.806;2022-12-07T21:07:38;-5.50;99.90
35668;DHT22;22158;59.280;17.806;2022-12-07T21:10:05;-5.40;99.90
35668;DHT22;22158;59.280;17.806;2022-12-07T21:12:31;-5.40;99.90
35668;DHT22;22158;59.280;17.806;2022-12-07T21:14:57;-5.40;99.90
35668;DHT22;22158;59.280;17.806;2022-12-07T21:17:22;-5.40;99.90
35668;DHT22;22158;59.280;17.806;2022-12-07T21:19:48;-5.40;99.90
35668;DHT22;22158;59.280;17.806;2022-12-07T21:22:14;-5.50;99.90
35668;DHT22;22158;59.280;17.806;2022-12-07T21:24:39;-5.50;99.90
35668;DHT22;22158;59.280;17.806;2022-12-07T21:27:06;-5.50;99.90
35668;DHT22;22158;59.280;17.806;2022-12-07T21:29:32;-5.50;99.90
35668;DHT22;22158;59.280;17.806;2022-12-07T21:31:58;-5.50;99.90
35668;DHT22;22158;59.280;17.806;2022-12-07T21:34:24;-5.50;99.90
35668;DHT22;22158;59.280;17.806;2022-12-07T21:36:50;-5.50;99.90
35668;DHT22;22158;59.280;17.806;2022-12-07T21:39:15;-5.50;99.90
35668;DHT22;22158;59.280;17.806;2022-12-07T21:41:42;-5.40;99.90
35668;DHT22;22158;59.280;17.806;2022-12-07T21:44:08;-5.50;99.90
35668;DHT22;22158;59.280;17.806;2022-12-07T21:46:38;-5.50;99.90
35668;DHT22;22158;59.280;17.806;2022-12-07T21:49:06;-5.50;99.90
35668;DHT22;22158;59.280;17.806;2022-12-07T21:51:33;-5.50;99.90
35668;DHT22;22158;59.280;17.806;2022-12-07T21:53:59;-5.50;99.90
35668;DHT22;22158;59.280;17.806;2022-12-07T21:56:39;-5.50;99.90
35668;DHT22;22158;59.280;17.806;2022-12-07T21:59:15;-5.50;99.90
35668;DHT22;22158;59.280;17.806;2022-12-07T22:01:45;-5.40;99.90
35668;DHT22;22158;59.280;17.806;2022-12-07T22:04:19;-5.40;99.90
35668;DHT22;22158;59.280;17.806;2022-12-07T22:06:46;-5.50;99.90